createdAt,value
2023-01-29T00:01:59.527Z,99357.44
2023-01-29T00:04:27.024Z,99349.81
2023-01-29T00:06:54.064Z,99350.59
2023-01-29T00:09:21.257Z,99353.78
2023-01-29T00:11:48.561Z,99355.38
2023-01-29T00:14:15.571Z,99352.66
2023-01-29T00:16:42.784Z,99355.28
2023-01-29T00:19:10.260Z,99351.53
2023-01-29T00:21:37.371Z,99360.03
2023-01-29T00:24:05.617Z,99356.69
2023-01-29T00:26:33.311Z,99361.06
2023-01-29T00:29:02.943Z,99362.69
2023-01-29T00:31:30.273Z,99366.31
2023-01-29T00:33:58.379Z,99365.72
2023-01-29T00:36:26.505Z,99366.69
2023-01-29T00:39:02.552Z,99369.25
2023-01-29T00:41:50.267Z,99375.47
2023-01-29T00:44:36.157Z,99379.00
2023-01-29T00:47:04.589Z,99374.94
2023-01-29T00:49:31.668Z,99375.69
2023-01-29T00:52:17.211Z,99373.09
2023-01-29T00:54:44.627Z,99378.25
2023-01-29T00:57:11.825Z,99376.50
2023-01-29T00:59:38.961Z,99384.25
2023-01-29T01:02:25.258Z,99389.63
2023-01-29T01:04:52.357Z,99377.66
2023-01-29T01:07:19.892Z,99371.78
2023-01-29T01:10:05.910Z,99381.94
2023-01-29T01:12:33.413Z,99374.22
2023-01-29T01:15:00.509Z,99380.09
2023-01-29T01:17:27.661Z,99373.34
2023-01-29T01:19:55.263Z,99377.69
2023-01-29T01:22:22.358Z,99373.53
2023-01-29T01:24:49.920Z,99378.56
2023-01-29T01:27:19.539Z,99378.47
2023-01-29T01:29:47.160Z,99383.72
2023-01-29T01:32:14.504Z,99381.09
2023-01-29T01:34:41.925Z,99382.97
2023-01-29T01:37:09.015Z,99382.66
2023-01-29T01:39:36.091Z,99382.78
2023-01-29T01:42:03.806Z,99391.37
2023-01-29T01:45:18.008Z,99388.72
2023-01-29T01:47:48.276Z,99393.81
2023-01-29T01:50:22.741Z,99393.94
2023-01-29T01:52:53.564Z,99400.66
2023-01-29T01:55:24.314Z,99393.63
2023-01-29T01:57:56.012Z,99389.47
2023-01-29T02:00:25.636Z,99403.16
2023-01-29T02:03:12.399Z,99401.66
2023-01-29T02:05:58.368Z,99398.03
2023-01-29T02:09:11.854Z,99406.94
2023-01-29T02:11:39.280Z,99400.84
2023-01-29T02:14:07.119Z,99392.22
2023-01-29T02:16:36.078Z,99401.72
2023-01-29T02:19:06.278Z,99406.25
2023-01-29T02:21:53.236Z,99398.44
2023-01-29T02:24:50.243Z,99403.00
2023-01-29T02:27:37.661Z,99411.03
2023-01-29T02:30:20.856Z,99412.94
2023-01-29T02:32:58.865Z,99413.59
2023-01-29T02:35:32.626Z,99414.50
2023-01-29T02:38:27.710Z,99417.81
2023-01-29T02:41:04.601Z,99419.47
2023-01-29T02:43:59.213Z,99418.78
2023-01-29T02:46:35.793Z,99412.69
2023-01-29T02:49:23.627Z,99422.00
2023-01-29T02:52:25.467Z,99423.00
2023-01-29T02:55:02.850Z,99424.41
2023-01-29T02:57:37.369Z,99424.38
2023-01-29T03:00:09.163Z,99426.75
2023-01-29T03:02:58.293Z,99430.13
2023-01-29T03:05:32.807Z,99429.97
2023-01-29T03:08:06.806Z,99439.78
2023-01-29T03:10:44.810Z,99432.03
2023-01-29T03:13:27.513Z,99419.03
2023-01-29T03:16:19.208Z,99433.00
2023-01-29T03:19:13.849Z,99438.03
2023-01-29T03:21:59.628Z,99434.56
2023-01-29T03:24:48.681Z,99441.34
2023-01-29T03:27:36.061Z,99442.09
2023-01-29T03:30:24.300Z,99435.22
2023-01-29T03:32:52.636Z,99443.78
2023-01-29T03:35:33.515Z,99444.41
2023-01-29T03:38:01.056Z,99438.41
2023-01-29T03:40:36.471Z,99437.47
2023-01-29T03:43:13.575Z,99453.09
2023-01-29T03:46:19.138Z,99447.94
2023-01-29T03:48:55.779Z,99462.41
2023-01-29T03:51:41.511Z,99456.09
2023-01-29T03:54:34.451Z,99452.72
2023-01-29T03:57:24.066Z,99462.75
2023-01-29T03:59:55.550Z,99469.06
2023-01-29T04:02:34.960Z,99456.00
2023-01-29T04:05:06.814Z,99458.81
2023-01-29T04:07:36.652Z,99457.66
2023-01-29T04:10:09.490Z,99459.34
2023-01-29T04:12:41.311Z,99454.44
2023-01-29T04:15:11.427Z,99452.81
2023-01-29T04:17:40.801Z,99459.44
2023-01-29T04:20:09.674Z,99459.44
2023-01-29T04:22:38.699Z,99460.97
2023-01-29T04:25:16.033Z,99460.13
2023-01-29T04:27:49.628Z,99459.06
2023-01-29T04:30:38.287Z,99447.38
2023-01-29T04:33:17.865Z,99452.59
2023-01-29T04:36:10.852Z,99448.09
2023-01-29T04:39:06.676Z,99449.69
2023-01-29T04:41:54.055Z,99459.00
2023-01-29T04:44:33.461Z,99453.34
2023-01-29T04:47:29.363Z,99459.44
2023-01-29T04:50:01.717Z,99455.13
2023-01-29T04:52:47.534Z,99458.53
2023-01-29T04:55:20.691Z,99459.53
2023-01-29T04:57:54.597Z,99463.78
2023-01-29T05:00:32.204Z,99456.06
2023-01-29T05:03:00.763Z,99455.03
2023-01-29T05:05:28.400Z,99455.19
2023-01-29T05:07:57.205Z,99462.72
2023-01-29T05:10:24.374Z,99459.31
2023-01-29T05:12:58.756Z,99460.81
2023-01-29T05:16:18.516Z,99450.72
2023-01-29T05:18:46.739Z,99462.72
2023-01-29T05:21:13.931Z,99462.22
2023-01-29T05:23:53.107Z,99470.72
2023-01-29T05:26:39.996Z,99460.66
2023-01-29T05:29:07.352Z,99463.81
2023-01-29T05:31:34.884Z,99455.28
2023-01-29T05:34:01.961Z,99455.91
2023-01-29T05:36:30.708Z,99457.50
2023-01-29T05:38:58.130Z,99458.50
2023-01-29T05:41:25.227Z,99462.66
2023-01-29T05:43:52.316Z,99469.44
2023-01-29T05:46:19.906Z,99459.22
2023-01-29T05:48:47.027Z,99468.81
2023-01-29T05:51:14.138Z,99466.34
2023-01-29T05:53:42.002Z,99466.16
2023-01-29T05:56:09.066Z,99457.66
2023-01-29T05:58:36.237Z,99469.00
2023-01-29T06:01:15.060Z,99468.81
2023-01-29T06:03:42.510Z,99470.91
2023-01-29T06:06:09.668Z,99474.97
2023-01-29T06:08:37.170Z,99469.53
2023-01-29T06:11:04.757Z,99485.91
2023-01-29T06:13:31.841Z,99482.50
2023-01-29T06:15:59.129Z,99474.97
2023-01-29T06:18:26.582Z,99485.06
2023-01-29T06:20:53.691Z,99489.25
2023-01-29T06:23:20.742Z,99482.22
2023-01-29T06:25:48.147Z,99493.72
2023-01-29T06:28:15.207Z,99496.25
2023-01-29T06:30:42.335Z,99498.72
2023-01-29T06:33:09.773Z,99507.34
2023-01-29T06:35:36.903Z,99506.47
2023-01-29T06:38:03.987Z,99520.13
2023-01-29T06:40:31.402Z,99527.69
2023-01-29T06:43:00.753Z,99522.84
2023-01-29T06:45:27.865Z,99523.56
2023-01-29T06:47:56.255Z,99526.38
2023-01-29T06:50:23.367Z,99531.59
2023-01-29T06:52:50.346Z,99528.06
2023-01-29T06:55:17.789Z,99536.87
2023-01-29T06:57:44.903Z,99531.75
2023-01-29T07:00:13.567Z,99534.91
2023-01-29T07:02:41.036Z,99535.09
2023-01-29T07:05:08.263Z,99539.50
2023-01-29T07:07:36.680Z,99538.19
2023-01-29T07:10:04.461Z,99535.94
2023-01-29T07:12:31.542Z,99537.81
2023-01-29T07:14:58.644Z,99528.16
2023-01-29T07:17:26.137Z,99533.03
2023-01-29T07:19:53.243Z,99539.00
2023-01-29T07:22:20.637Z,99538.44
2023-01-29T07:24:48.689Z,99543.69
2023-01-29T07:27:15.801Z,99534.13
2023-01-29T07:29:42.873Z,99530.13
2023-01-29T07:32:10.330Z,99521.44
2023-01-29T07:34:37.447Z,99515.25
2023-01-29T07:37:06.237Z,99513.66
2023-01-29T07:39:33.596Z,99500.84
2023-01-29T07:42:01.201Z,99502.34
2023-01-29T07:44:28.808Z,99496.19
2023-01-29T07:46:56.224Z,99508.47
2023-01-29T07:49:23.314Z,99497.03
2023-01-29T07:51:51.279Z,99503.66
2023-01-29T07:54:18.721Z,99506.88
2023-01-29T07:56:45.798Z,99511.47
2023-01-29T07:59:12.915Z,99509.06
2023-01-29T08:01:40.347Z,99506.34
2023-01-29T08:04:07.734Z,99509.66
2023-01-29T08:06:34.869Z,99503.94
2023-01-29T08:09:02.266Z,99511.44
2023-01-29T08:11:29.671Z,99494.78
2023-01-29T08:13:57.537Z,99499.06
2023-01-29T08:16:24.669Z,99500.41
2023-01-29T08:18:52.016Z,99499.94
2023-01-29T08:21:19.162Z,99502.50
2023-01-29T08:23:46.165Z,99500.47
2023-01-29T08:26:13.475Z,99500.47
2023-01-29T08:28:40.495Z,99502.78
2023-01-29T08:31:17.326Z,99513.09
2023-01-29T08:33:44.770Z,99508.34
2023-01-29T08:36:12.053Z,99519.72
2023-01-29T08:38:39.268Z,99515.72
2023-01-29T08:41:07.242Z,99520.22
2023-01-29T08:43:36.968Z,99520.84
2023-01-29T08:46:05.140Z,99524.34
2023-01-29T08:48:33.289Z,99529.25
2023-01-29T08:51:02.520Z,99529.50
2023-01-29T08:53:30.849Z,99546.97
2023-01-29T08:55:58.264Z,99535.56
2023-01-29T08:58:25.317Z,99542.41
2023-01-29T09:00:52.333Z,99548.56
2023-01-29T09:03:19.736Z,99551.47
2023-01-29T09:05:46.854Z,99547.34
2023-01-29T09:08:14.092Z,99548.03
2023-01-29T09:10:41.437Z,99549.00
2023-01-29T09:13:08.422Z,99560.22
2023-01-29T09:15:35.877Z,99557.88
2023-01-29T09:18:04.558Z,99561.13
2023-01-29T09:20:31.613Z,99559.97
2023-01-29T09:22:59.403Z,99556.84
2023-01-29T09:25:26.771Z,99562.69
2023-01-29T09:27:54.400Z,99577.25
2023-01-29T09:30:21.746Z,99567.88
2023-01-29T09:32:53.649Z,99563.38
2023-01-29T09:35:22.534Z,99562.22
2023-01-29T09:37:50.421Z,99572.19
2023-01-29T09:40:37.684Z,99580.47
2023-01-29T09:43:18.279Z,99582.75
2023-01-29T09:45:53.979Z,99593.88
2023-01-29T09:48:23.385Z,99589.09
2023-01-29T09:50:52.326Z,99591.47
2023-01-29T09:53:29.509Z,99598.53
2023-01-29T09:56:02.856Z,99587.63
2023-01-29T09:58:36.387Z,99592.72
2023-01-29T10:01:24.091Z,99590.03
2023-01-29T10:04:12.867Z,99598.44
2023-01-29T10:07:03.868Z,99599.03
2023-01-29T10:10:07.559Z,99608.25
2023-01-29T10:12:56.051Z,99606.91
2023-01-29T10:15:35.959Z,99602.44
2023-01-29T10:18:18.529Z,99600.03
2023-01-29T10:21:24.795Z,99605.13
2023-01-29T10:24:21.306Z,99599.91
2023-01-29T10:26:50.105Z,99603.25
2023-01-29T10:29:19.995Z,99606.19
2023-01-29T10:31:51.288Z,99598.16
2023-01-29T10:34:28.719Z,99598.16
2023-01-29T10:36:57.052Z,99603.06
2023-01-29T10:39:26.053Z,99601.34
2023-01-29T10:42:21.160Z,99610.78
2023-01-29T10:45:09.477Z,99590.16
2023-01-29T10:47:54.796Z,99590.84
2023-01-29T10:50:48.983Z,99585.62
2023-01-29T10:53:16.017Z,99575.50
2023-01-29T10:55:51.547Z,99570.72
2023-01-29T10:58:34.531Z,99573.28
2023-01-29T11:01:02.160Z,99575.13
2023-01-29T11:03:33.466Z,99566.28
2023-01-29T11:06:12.959Z,99562.50
2023-01-29T11:09:04.352Z,99551.06
2023-01-29T11:11:43.379Z,99557.66
2023-01-29T11:14:14.808Z,99555.09
2023-01-29T11:16:44.186Z,99559.09
2023-01-29T11:19:11.554Z,99560.47
2023-01-29T11:21:58.742Z,99550.59
2023-01-29T11:24:26.658Z,99549.91
2023-01-29T11:26:59.092Z,99533.00
2023-01-29T11:29:49.848Z,99528.34
2023-01-29T11:32:26.586Z,99531.53
2023-01-29T11:35:14.231Z,99530.19
2023-01-29T11:37:43.734Z,99517.88
2023-01-29T11:40:20.640Z,99521.91
2023-01-29T11:42:48.585Z,99517.25
2023-01-29T11:45:30.056Z,99519.06
2023-01-29T11:47:57.423Z,99516.97
2023-01-29T11:50:26.838Z,99514.78
2023-01-29T11:52:54.498Z,99500.56
2023-01-29T11:55:48.202Z,99499.44
2023-01-29T11:58:27.731Z,99494.09
2023-01-29T12:00:55.676Z,99488.13
2023-01-29T12:03:37.016Z,99482.19
2023-01-29T12:06:23.801Z,99487.75
2023-01-29T12:08:58.000Z,99487.44
2023-01-29T12:11:29.540Z,99484.13
2023-01-29T12:14:01.191Z,99488.66
2023-01-29T12:16:33.878Z,99475.13
2023-01-29T12:19:27.729Z,99477.66
2023-01-29T12:22:20.769Z,99468.72
2023-01-29T12:24:48.117Z,99472.41
2023-01-29T12:27:26.548Z,99467.13
2023-01-29T12:30:28.114Z,99468.59
2023-01-29T12:33:09.460Z,99470.25
2023-01-29T12:35:54.573Z,99462.88
2023-01-29T12:38:23.167Z,99464.78
2023-01-29T12:41:33.798Z,99460.00
2023-01-29T12:44:21.135Z,99466.47
2023-01-29T12:46:54.029Z,99470.44
2023-01-29T12:49:28.194Z,99465.38
2023-01-29T12:52:28.744Z,99460.94
2023-01-29T12:55:03.348Z,99458.00
2023-01-29T12:57:56.496Z,99446.66
2023-01-29T13:00:30.148Z,99445.47
2023-01-29T13:03:09.203Z,99456.47
2023-01-29T13:05:40.907Z,99452.75
2023-01-29T13:08:11.847Z,99441.62
2023-01-29T13:10:43.366Z,99431.59
2023-01-29T13:13:26.991Z,99424.81
2023-01-29T13:15:55.574Z,99427.78
2023-01-29T13:18:42.484Z,99415.91
2023-01-29T13:21:15.728Z,99417.41
2023-01-29T13:23:47.309Z,99411.06
2023-01-29T13:26:19.052Z,99417.09
2023-01-29T13:28:47.058Z,99407.53
2023-01-29T13:31:31.615Z,99406.28
2023-01-29T13:34:20.268Z,99396.25
2023-01-29T13:36:49.907Z,99391.81
2023-01-29T13:39:25.933Z,99396.72
2023-01-29T13:41:55.196Z,99403.25
2023-01-29T13:44:37.805Z,99403.44
2023-01-29T13:47:08.175Z,99410.34
2023-01-29T13:49:38.873Z,99401.03
2023-01-29T13:52:21.129Z,99407.53
2023-01-29T13:54:58.065Z,99405.06
2023-01-29T13:57:56.753Z,99405.59
2023-01-29T14:00:30.723Z,99402.44
2023-01-29T14:03:01.038Z,99408.19
2023-01-29T14:05:31.427Z,99394.22
2023-01-29T14:08:03.355Z,99391.31
2023-01-29T14:10:32.955Z,99379.69
2023-01-29T14:13:03.340Z,99391.97
2023-01-29T14:15:33.499Z,99404.44
2023-01-29T14:18:18.923Z,99396.97
2023-01-29T14:20:49.010Z,99400.72
2023-01-29T14:23:41.819Z,99408.91
2023-01-29T14:26:38.360Z,99396.81
2023-01-29T14:29:21.329Z,99401.19
2023-01-29T14:32:06.799Z,99397.44
2023-01-29T14:34:43.195Z,99406.22
2023-01-29T14:37:16.338Z,99407.94
2023-01-29T14:39:43.603Z,99397.13
2023-01-29T14:42:17.372Z,99400.56
2023-01-29T14:44:44.611Z,99401.53
2023-01-29T14:47:33.240Z,99394.84
2023-01-29T14:50:03.461Z,99400.44
2023-01-29T14:52:38.776Z,99395.66
2023-01-29T14:55:14.911Z,99403.91
2023-01-29T14:57:42.629Z,99402.16
2023-01-29T15:00:31.555Z,99398.84
2023-01-29T15:03:01.964Z,99401.03
2023-01-29T15:05:33.216Z,99404.38
2023-01-29T15:08:19.085Z,99396.53
2023-01-29T15:11:12.528Z,99410.47
2023-01-29T15:13:50.834Z,99401.19
2023-01-29T15:16:25.250Z,99397.91
2023-01-29T15:18:56.329Z,99392.53
2023-01-29T15:21:24.243Z,99402.06
2023-01-29T15:24:04.742Z,99384.37
2023-01-29T15:26:32.274Z,99398.84
2023-01-29T15:29:04.562Z,99391.09
2023-01-29T15:31:32.624Z,99397.50
2023-01-29T15:34:05.081Z,99396.66
2023-01-29T15:36:33.078Z,99385.84
2023-01-29T15:39:24.380Z,99378.41
2023-01-29T15:42:05.378Z,99387.09
2023-01-29T15:44:33.617Z,99390.97
2023-01-29T15:47:01.419Z,99390.97
2023-01-29T15:49:34.311Z,99391.34
2023-01-29T15:52:05.591Z,99397.38
2023-01-29T15:54:34.015Z,99398.34
2023-01-29T15:57:02.349Z,99399.31
2023-01-29T15:59:35.530Z,99403.53
2023-01-29T16:02:21.454Z,99401.81
2023-01-29T16:04:48.949Z,99395.09
2023-01-29T16:07:16.092Z,99390.03
2023-01-29T16:09:43.441Z,99390.34
2023-01-29T16:12:12.590Z,99400.63
2023-01-29T16:14:40.817Z,99403.38
2023-01-29T16:17:22.866Z,99402.53
2023-01-29T16:19:58.304Z,99398.37
2023-01-29T16:22:29.170Z,99403.50
2023-01-29T16:24:56.631Z,99407.03
2023-01-29T16:27:24.678Z,99408.88
2023-01-29T16:29:51.910Z,99417.34
2023-01-29T16:32:20.270Z,99426.72
2023-01-29T16:34:48.896Z,99420.63
2023-01-29T16:37:26.395Z,99429.09
2023-01-29T16:39:54.023Z,99424.84
2023-01-29T16:42:24.193Z,99425.62
2023-01-29T16:45:00.937Z,99428.25
2023-01-29T16:47:34.271Z,99429.22
2023-01-29T16:50:21.632Z,99426.56
2023-01-29T16:53:16.716Z,99427.59
2023-01-29T16:55:49.472Z,99424.13
2023-01-29T16:58:19.415Z,99433.47
2023-01-29T17:00:53.341Z,99431.06
2023-01-29T17:03:21.308Z,99430.34
2023-01-29T17:05:48.799Z,99418.62
2023-01-29T17:08:36.091Z,99429.72
2023-01-29T17:11:03.862Z,99432.44
2023-01-29T17:13:39.954Z,99430.75
2023-01-29T17:16:20.776Z,99427.28
2023-01-29T17:18:47.941Z,99433.38
2023-01-29T17:21:15.339Z,99428.31
2023-01-29T17:23:42.431Z,99432.91
2023-01-29T17:26:12.671Z,99430.37
2023-01-29T17:28:41.433Z,99424.50
2023-01-29T17:31:08.969Z,99426.88
2023-01-29T17:33:38.580Z,99417.47
2023-01-29T17:36:06.466Z,99425.66
2023-01-29T17:38:33.781Z,99417.19
2023-01-29T17:41:07.631Z,99421.37
2023-01-29T17:43:35.009Z,99412.88
2023-01-29T17:46:02.569Z,99419.16
2023-01-29T17:48:30.728Z,99408.31
2023-01-29T17:51:03.386Z,99413.84
2023-01-29T17:53:44.807Z,99409.50
2023-01-29T17:56:28.090Z,99399.25
2023-01-29T17:58:55.245Z,99397.88
2023-01-29T18:01:22.671Z,99408.13
2023-01-29T18:03:50.191Z,99392.66
2023-01-29T18:06:26.191Z,99386.84
2023-01-29T18:08:53.935Z,99386.91
2023-01-29T18:11:21.012Z,99388.72
2023-01-29T18:13:48.134Z,99386.34
2023-01-29T18:16:16.013Z,99383.94
2023-01-29T18:18:43.079Z,99378.75
2023-01-29T18:21:10.341Z,99376.22
2023-01-29T18:23:37.733Z,99380.50
2023-01-29T18:26:04.981Z,99372.91
2023-01-29T18:28:32.152Z,99381.47
2023-01-29T18:31:03.798Z,99374.63
2023-01-29T18:33:31.835Z,99373.97
2023-01-29T18:35:58.915Z,99373.09
2023-01-29T18:38:26.713Z,99364.75
2023-01-29T18:40:53.833Z,99368.91
2023-01-29T18:43:20.970Z,99364.69
2023-01-29T18:45:49.432Z,99373.97
2023-01-29T18:48:16.608Z,99367.19
2023-01-29T18:50:43.730Z,99367.22
2023-01-29T18:53:11.231Z,99374.97
2023-01-29T18:55:38.565Z,99379.38
2023-01-29T18:58:28.186Z,99378.56
2023-01-29T19:00:53.218Z,99374.41
2023-01-29T19:03:20.631Z,99371.69
2023-01-29T19:05:47.980Z,99374.22
2023-01-29T19:08:15.530Z,99378.47
2023-01-29T19:10:42.755Z,99381.22
2023-01-29T19:13:10.002Z,99384.63
2023-01-29T19:15:37.412Z,99380.44
2023-01-29T19:18:04.572Z,99376.97
2023-01-29T19:20:31.699Z,99371.97
2023-01-29T19:22:59.571Z,99382.97
2023-01-29T19:25:26.694Z,99374.41
2023-01-29T19:27:54.185Z,99372.81
2023-01-29T19:30:21.668Z,99370.31
2023-01-29T19:32:48.837Z,99373.84
2023-01-29T19:35:16.179Z,99375.59
2023-01-29T19:37:43.972Z,99372.22
2023-01-29T19:40:11.471Z,99373.06
2023-01-29T19:42:38.767Z,99368.94
2023-01-29T19:45:08.319Z,99363.00
2023-01-29T19:47:40.124Z,99363.94
2023-01-29T19:50:09.908Z,99358.06
2023-01-29T19:52:50.826Z,99365.59
2023-01-29T19:55:20.662Z,99363.00
2023-01-29T19:57:48.187Z,99367.31
2023-01-29T20:00:17.476Z,99354.50
2023-01-29T20:02:46.764Z,99357.84
2023-01-29T20:05:17.235Z,99362.91
2023-01-29T20:07:44.997Z,99361.97
2023-01-29T20:10:17.303Z,99358.59
2023-01-29T20:12:46.090Z,99365.31
2023-01-29T20:15:14.529Z,99369.53
2023-01-29T20:17:41.891Z,99360.37
2023-01-29T20:20:10.094Z,99360.37
2023-01-29T20:22:37.712Z,99350.19
2023-01-29T20:25:05.034Z,99362.00
2023-01-29T20:27:32.492Z,99352.72
2023-01-29T20:29:59.813Z,99357.12
2023-01-29T20:32:26.932Z,99359.56
2023-01-29T20:34:54.301Z,99350.31
2023-01-29T20:37:21.462Z,99351.00
2023-01-29T20:39:48.844Z,99350.22
2023-01-29T20:42:16.372Z,99346.84
2023-01-29T20:44:43.808Z,99341.78
2023-01-29T20:47:11.918Z,99340.03
2023-01-29T20:49:39.292Z,99329.87
2023-01-29T20:52:07.586Z,99322.22
2023-01-29T20:54:34.793Z,99329.00
2023-01-29T20:57:02.527Z,99345.09
2023-01-29T20:59:29.631Z,99329.81
2023-01-29T21:01:56.722Z,99326.44
2023-01-29T21:04:24.165Z,99337.63
2023-01-29T21:06:51.372Z,99332.44
2023-01-29T21:09:18.500Z,99338.28
2023-01-29T21:11:46.036Z,99342.59
2023-01-29T21:14:14.164Z,99339.25
2023-01-29T21:16:41.362Z,99343.59
2023-01-29T21:19:09.681Z,99341.03
2023-01-29T21:21:36.774Z,99348.69
2023-01-29T21:24:04.102Z,99358.09
2023-01-29T21:26:31.661Z,99354.69
2023-01-29T21:28:58.767Z,99356.34
2023-01-29T21:31:25.973Z,99347.81
2023-01-29T21:33:53.457Z,99349.59
2023-01-29T21:36:20.622Z,99347.00
2023-01-29T21:38:47.773Z,99348.03
2023-01-29T21:41:15.176Z,99349.72
2023-01-29T21:43:42.283Z,99353.03
2023-01-29T21:46:11.648Z,99349.56
2023-01-29T21:48:39.967Z,99351.22
2023-01-29T21:51:07.521Z,99343.66
2023-01-29T21:53:34.687Z,99345.25
2023-01-29T21:56:03.823Z,99346.97
2023-01-29T21:58:31.731Z,99349.66
2023-01-29T22:01:36.054Z,99338.56
2023-01-29T22:03:47.580Z,99338.75
2023-01-29T22:06:15.395Z,99336.06
2023-01-29T22:08:42.534Z,99340.38
2023-01-29T22:11:10.322Z,99335.16
2023-01-29T22:13:37.601Z,99336.91
2023-01-29T22:16:06.018Z,99327.66
2023-01-29T22:18:34.270Z,99331.06
2023-01-29T22:21:05.014Z,99323.47
2023-01-29T22:23:32.698Z,99327.88
2023-01-29T22:26:07.085Z,99316.72
2023-01-29T22:28:35.096Z,99312.47
2023-01-29T22:31:03.743Z,99314.13
2023-01-29T22:33:31.361Z,99304.81
2023-01-29T22:35:58.454Z,99307.44
2023-01-29T22:38:25.950Z,99297.22
2023-01-29T22:40:53.946Z,99302.28
2023-01-29T22:43:21.755Z,99290.25
2023-01-29T22:45:49.172Z,99294.53
2023-01-29T22:48:16.229Z,99289.44
2023-01-29T22:50:53.901Z,99292.78
2023-01-29T22:53:21.758Z,99291.09
2023-01-29T22:55:55.810Z,99285.94
2023-01-29T22:58:23.292Z,99278.91
2023-01-29T23:00:51.290Z,99278.03
2023-01-29T23:03:18.375Z,99276.25
2023-01-29T23:05:45.802Z,99272.78
2023-01-29T23:08:12.904Z,99269.47
2023-01-29T23:10:40.011Z,99271.88
2023-01-29T23:13:07.437Z,99267.59
2023-01-29T23:15:34.526Z,99274.50
2023-01-29T23:18:01.661Z,99268.47
2023-01-29T23:20:29.271Z,99259.00
2023-01-29T23:22:56.365Z,99259.06
2023-01-29T23:25:43.574Z,99262.41
2023-01-29T23:28:10.955Z,99252.97
2023-01-29T23:30:38.067Z,99242.72
2023-01-29T23:33:05.631Z,99245.34
2023-01-29T23:35:33.073Z,99241.97
2023-01-29T23:38:00.187Z,99243.81
2023-01-29T23:40:27.240Z,99231.06
2023-01-29T23:42:54.620Z,99237.00
2023-01-29T23:45:21.686Z,99233.88
2023-01-29T23:47:48.986Z,99228.72
2023-01-29T23:50:17.595Z,99233.03
2023-01-29T23:52:44.872Z,99232.06
2023-01-29T23:55:11.924Z,99231.28
2023-01-29T23:57:39.455Z,99222.03
